sensor_id;sensor_type;location;lat;lon;timestamp;temperature;humidity
31263;DHT22;17892;52.080;9.006;2022-11-10T00:02:15;13.80;89.50
31263;DHT22;17892;52.080;9.006;2022-11-10T00:04:40;13.80;89.40
31263;DHT22;17892;52.080;9.006;2022-11-10T00:07:06;13.80;88.80
31263;DHT22;17892;52.080;9.006;2022-11-10T00:09:31;13.80;89.50
31263;DHT22;17892;52.080;9.006;2022-11-10T00:11:57;13.70;89.10
31263;DHT22;17892;52.080;9.006;2022-11-10T00:14:23;13.70;88.70
31263;DHT22;17892;52.080;9.006;2022-11-10T00:17:08;13.70;89.90
31263;DHT22;17892;52.080;9.006;2022-11-10T00:19:34;13.70;89.00
31263;DHT22;17892;52.080;9.006;2022-11-10T00:22:00;13.70;89.70
31263;DHT22;17892;52.080;9.006;2022-11-10T00:24:26;13.70;90.40
31263;DHT22;17892;52.080;9.006;2022-11-10T00:26:53;13.70;90.20
31263;DHT22;17892;52.080;9.006;2022-11-10T00:29:19;13.60;89.60
31263;DHT22;17892;52.080;9.006;2022-11-10T00:31:45;13.60;90.10
31263;DHT22;17892;52.080;9.006;2022-11-10T00:34:11;13.60;90.10
31263;DHT22;17892;52.080;9.006;2022-11-10T00:36:38;13.60;90.40
31263;DHT22;17892;52.080;9.006;2022-11-10T00:39:04;13.60;90.30
31263;DHT22;17892;52.080;9.006;2022-11-10T00:41:30;13.60;90.20
31263;DHT22;17892;52.080;9.006;2022-11-10T00:43:55;13.60;90.10
31263;DHT22;17892;52.080;9.006;2022-11-10T00:46:21;13.60;89.90
31263;DHT22;17892;52.080;9.006;2022-11-10T00:48:47;13.60;89.40
31263;DHT22;17892;52.080;9.006;2022-11-10T00:51:23;13.60;89.20
31263;DHT22;17892;52.080;9.006;2022-11-10T00:53:50;13.60;89.10
31263;DHT22;17892;52.080;9.006;2022-11-10T00:56:16;13.60;89.50
31263;DHT22;17892;52.080;9.006;2022-11-10T00:58:42;13.60;89.50
31263;DHT22;17892;52.080;9.006;2022-11-10T01:01:09;13.50;89.80
31263;DHT22;17892;52.080;9.006;2022-11-10T01:03:35;13.50;90.20
31263;DHT22;17892;52.080;9.006;2022-11-10T01:06:05;13.50;89.80
31263;DHT22;17892;52.080;9.006;2022-11-10T01:08:31;13.50;90.10
31263;DHT22;17892;52.080;9.006;2022-11-10T01:11:04;13.50;90.40
31263;DHT22;17892;52.080;9.006;2022-11-10T01:13:32;13.50;90.00
31263;DHT22;17892;52.080;9.006;2022-11-10T01:16:05;13.50;90.30
31263;DHT22;17892;52.080;9.006;2022-11-10T01:18:31;13.50;90.30
31263;DHT22;17892;52.080;9.006;2022-11-10T01:20:56;13.50;90.40
31263;DHT22;17892;52.080;9.006;2022-11-10T01:23:22;13.50;90.50
31263;DHT22;17892;52.080;9.006;2022-11-10T01:25:48;13.50;90.20
31263;DHT22;17892;52.080;9.006;2022-11-10T01:28:13;13.50;90.30
31263;DHT22;17892;52.080;9.006;2022-11-10T01:30:39;13.50;90.30
31263;DHT22;17892;52.080;9.006;2022-11-10T01:33:04;13.50;90.30
31263;DHT22;17892;52.080;9.006;2022-11-10T01:35:30;13.50;90.30
31263;DHT22;17892;52.080;9.006;2022-11-10T01:37:57;13.50;90.50
31263;DHT22;17892;52.080;9.006;2022-11-10T01:40:23;13.50;90.50
31263;DHT22;17892;52.080;9.006;2022-11-10T01:42:53;13.40;90.20
31263;DHT22;17892;52.080;9.006;2022-11-10T01:47:52;13.40;90.20
31263;DHT22;17892;52.080;9.006;2022-11-10T01:50:19;13.40;90.40
31263;DHT22;17892;52.080;9.006;2022-11-10T01:52:47;13.40;90.40
31263;DHT22;17892;52.080;9.006;2022-11-10T01:55:14;13.40;90.60
31263;DHT22;17892;52.080;9.006;2022-11-10T01:57:40;13.30;90.60
31263;DHT22;17892;52.080;9.006;2022-11-10T02:00:06;13.30;90.30
31263;DHT22;17892;52.080;9.006;2022-11-10T02:02:41;13.30;90.50
31263;DHT22;17892;52.080;9.006;2022-11-10T02:05:10;13.30;90.90
31263;DHT22;17892;52.080;9.006;2022-11-10T02:07:36;13.30;90.50
31263;DHT22;17892;52.080;9.006;2022-11-10T02:10:02;13.30;90.60
31263;DHT22;17892;52.080;9.006;2022-11-10T02:12:29;13.30;90.50
31263;DHT22;17892;52.080;9.006;2022-11-10T02:15:02;13.20;90.70
31263;DHT22;17892;52.080;9.006;2022-11-10T02:17:28;13.20;91.10
31263;DHT22;17892;52.080;9.006;2022-11-10T02:19:57;13.20;90.80
31263;DHT22;17892;52.080;9.006;2022-11-10T02:22:23;13.20;90.80
31263;DHT22;17892;52.080;9.006;2022-11-10T02:24:48;13.20;90.80
31263;DHT22;17892;52.080;9.006;2022-11-10T02:27:14;13.20;91.00
31263;DHT22;17892;52.080;9.006;2022-11-10T02:29:40;13.20;90.90
31263;DHT22;17892;52.080;9.006;2022-11-10T02:32:06;13.20;91.30
31263;DHT22;17892;52.080;9.006;2022-11-10T02:34:31;13.20;91.00
31263;DHT22;17892;52.080;9.006;2022-11-10T02:36:57;13.20;90.80
31263;DHT22;17892;52.080;9.006;2022-11-10T02:39:22;13.20;90.80
31263;DHT22;17892;52.080;9.006;2022-11-10T02:41:48;13.20;90.70
31263;DHT22;17892;52.080;9.006;2022-11-10T02:44:14;13.20;90.70
31263;DHT22;17892;52.080;9.006;2022-11-10T02:46:39;13.20;90.70
31263;DHT22;17892;52.080;9.006;2022-11-10T02:49:05;13.20;90.90
31263;DHT22;17892;52.080;9.006;2022-11-10T02:51:32;13.20;90.90
31263;DHT22;17892;52.080;9.006;2022-11-10T02:53:58;13.20;90.90
31263;DHT22;17892;52.080;9.006;2022-11-10T02:56:23;13.20;91.00
31263;DHT22;17892;52.080;9.006;2022-11-10T02:58:49;13.10;91.00
31263;DHT22;17892;52.080;9.006;2022-11-10T03:01:14;13.10;91.40
31263;DHT22;17892;52.080;9.006;2022-11-10T03:03:40;13.10;91.10
31263;DHT22;17892;52.080;9.006;2022-11-10T03:06:06;13.20;91.10
31263;DHT22;17892;52.080;9.006;2022-11-10T03:08:31;13.10;91.10
31263;DHT22;17892;52.080;9.006;2022-11-10T03:10:57;13.10;91.00
31263;DHT22;17892;52.080;9.006;2022-11-10T03:13:23;13.20;91.10
31263;DHT22;17892;52.080;9.006;2022-11-10T03:15:49;13.10;91.30
31263;DHT22;17892;52.080;9.006;2022-11-10T03:18:15;13.10;91.40
31263;DHT22;17892;52.080;9.006;2022-11-10T03:20:41;13.10;91.30
31263;DHT22;17892;52.080;9.006;2022-11-10T03:23:06;13.10;91.40
31263;DHT22;17892;52.080;9.006;2022-11-10T03:25:32;13.10;91.20
31263;DHT22;17892;52.080;9.006;2022-11-10T03:27:59;13.10;91.40
31263;DHT22;17892;52.080;9.006;2022-11-10T03:30:25;13.10;91.20
31263;DHT22;17892;52.080;9.006;2022-11-10T03:32:51;13.10;91.20
31263;DHT22;17892;52.080;9.006;2022-11-10T03:35:16;13.10;91.20
31263;DHT22;17892;52.080;9.006;2022-11-10T03:37:42;13.10;91.20
31263;DHT22;17892;52.080;9.006;2022-11-10T03:40:09;13.10;91.80
31263;DHT22;17892;52.080;9.006;2022-11-10T03:42:35;13.10;91.60
31263;DHT22;17892;52.080;9.006;2022-11-10T03:45:00;13.10;91.60
31263;DHT22;17892;52.080;9.006;2022-11-10T03:47:26;13.10;91.60
31263;DHT22;17892;52.080;9.006;2022-11-10T03:49:51;13.10;91.50
31263;DHT22;17892;52.080;9.006;2022-11-10T03:52:17;13.10;91.50
31263;DHT22;17892;52.080;9.006;2022-11-10T03:54:43;13.10;91.60
31263;DHT22;17892;52.080;9.006;2022-11-10T03:57:08;13.10;91.70
31263;DHT22;17892;52.080;9.006;2022-11-10T03:59:34;13.10;91.50
31263;DHT22;17892;52.080;9.006;2022-11-10T04:02:00;13.10;92.30
31263;DHT22;17892;52.080;9.006;2022-11-10T04:04:26;13.10;91.70
31263;DHT22;17892;52.080;9.006;2022-11-10T04:07:11;13.10;91.60
31263;DHT22;17892;52.080;9.006;2022-11-10T04:09:56;13.10;91.90
31263;DHT22;17892;52.080;9.006;2022-11-10T04:12:22;13.10;92.10
31263;DHT22;17892;52.080;9.006;2022-11-10T04:15:07;13.10;92.90
31263;DHT22;17892;52.080;9.006;2022-11-10T04:17:52;13.00;92.10
31263;DHT22;17892;52.080;9.006;2022-11-10T04:20:18;13.00;91.90
31263;DHT22;17892;52.080;9.006;2022-11-10T04:22:43;13.00;91.80
31263;DHT22;17892;52.080;9.006;2022-11-10T04:25:28;13.00;92.00
31263;DHT22;17892;52.080;9.006;2022-11-10T04:27:53;13.00;92.50
31263;DHT22;17892;52.080;9.006;2022-11-10T04:30:19;13.00;92.10
31263;DHT22;17892;52.080;9.006;2022-11-10T04:32:44;13.00;92.30
31263;DHT22;17892;52.080;9.006;2022-11-10T04:35:10;13.00;92.30
31263;DHT22;17892;52.080;9.006;2022-11-10T04:37:36;13.00;92.20
31263;DHT22;17892;52.080;9.006;2022-11-10T04:40:01;13.00;92.40
31263;DHT22;17892;52.080;9.006;2022-11-10T04:42:27;13.00;92.40
31263;DHT22;17892;52.080;9.006;2022-11-10T04:44:53;13.00;92.30
31263;DHT22;17892;52.080;9.006;2022-11-10T04:47:18;13.00;92.20
31263;DHT22;17892;52.080;9.006;2022-11-10T04:49:44;13.00;92.40
31263;DHT22;17892;52.080;9.006;2022-11-10T04:52:09;13.00;92.50
31263;DHT22;17892;52.080;9.006;2022-11-10T04:54:35;13.00;92.60
31263;DHT22;17892;52.080;9.006;2022-11-10T04:57:00;13.00;92.60
31263;DHT22;17892;52.080;9.006;2022-11-10T04:59:26;13.00;92.50
31263;DHT22;17892;52.080;9.006;2022-11-10T05:01:52;13.00;92.40
31263;DHT22;17892;52.080;9.006;2022-11-10T05:04:17;13.00;92.50
31263;DHT22;17892;52.080;9.006;2022-11-10T05:06:43;13.00;92.50
31263;DHT22;17892;52.080;9.006;2022-11-10T05:09:09;13.00;92.70
31263;DHT22;17892;52.080;9.006;2022-11-10T05:11:34;13.00;92.50
31263;DHT22;17892;52.080;9.006;2022-11-10T05:14:00;13.00;92.70
31263;DHT22;17892;52.080;9.006;2022-11-10T05:16:25;13.00;92.90
31263;DHT22;17892;52.080;9.006;2022-11-10T05:18:51;13.00;92.50
31263;DHT22;17892;52.080;9.006;2022-11-10T05:21:18;13.00;92.80
31263;DHT22;17892;52.080;9.006;2022-11-10T05:23:44;13.00;92.90
31263;DHT22;17892;52.080;9.006;2022-11-10T05:26:12;13.00;92.80
31263;DHT22;17892;52.080;9.006;2022-11-10T05:28:40;13.00;92.90
31263;DHT22;17892;52.080;9.006;2022-11-10T05:31:07;13.00;92.60
31263;DHT22;17892;52.080;9.006;2022-11-10T05:33:33;13.00;92.60
31263;DHT22;17892;52.080;9.006;2022-11-10T05:35:59;13.00;92.40
31263;DHT22;17892;52.080;9.006;2022-11-10T05:38:26;13.00;92.80
31263;DHT22;17892;52.080;9.006;2022-11-10T05:40:51;13.00;92.60
31263;DHT22;17892;52.080;9.006;2022-11-10T05:43:17;13.00;93.00
31263;DHT22;17892;52.080;9.006;2022-11-10T05:45:43;13.00;92.90
31263;DHT22;17892;52.080;9.006;2022-11-10T05:48:09;13.00;92.50
31263;DHT22;17892;52.080;9.006;2022-11-10T05:50:35;13.00;92.30
31263;DHT22;17892;52.080;9.006;2022-11-10T05:53:00;13.00;92.50
31263;DHT22;17892;52.080;9.006;2022-11-10T05:55:27;13.00;92.40
31263;DHT22;17892;52.080;9.006;2022-11-10T05:57:53;13.00;92.40
31263;DHT22;17892;52.080;9.006;2022-11-10T06:00:20;13.00;92.40
31263;DHT22;17892;52.080;9.006;2022-11-10T06:02:57;13.00;92.30
31263;DHT22;17892;52.080;9.006;2022-11-10T06:05:24;13.00;92.40
31263;DHT22;17892;52.080;9.006;2022-11-10T06:07:50;13.00;92.60
31263;DHT22;17892;52.080;9.006;2022-11-10T06:10:16;13.00;92.50
31263;DHT22;17892;52.080;9.006;2022-11-10T06:12:42;13.00;92.90
31263;DHT22;17892;52.080;9.006;2022-11-10T06:15:08;13.00;92.60
31263;DHT22;17892;52.080;9.006;2022-11-10T06:17:37;13.00;92.70
31263;DHT22;17892;52.080;9.006;2022-11-10T06:20:02;13.00;92.60
31263;DHT22;17892;52.080;9.006;2022-11-10T06:22:28;13.00;92.70
31263;DHT22;17892;52.080;9.006;2022-11-10T06:24:54;13.00;92.40
31263;DHT22;17892;52.080;9.006;2022-11-10T06:27:19;13.00;92.60
31263;DHT22;17892;52.080;9.006;2022-11-10T06:29:45;13.00;92.50
31263;DHT22;17892;52.080;9.006;2022-11-10T06:32:10;13.00;92.90
31263;DHT22;17892;52.080;9.006;2022-11-10T06:34:36;13.00;93.20
31263;DHT22;17892;52.080;9.006;2022-11-10T06:37:02;13.00;92.90
31263;DHT22;17892;52.080;9.006;2022-11-10T06:39:27;12.90;92.60
31263;DHT22;17892;52.080;9.006;2022-11-10T06:41:53;13.00;92.70
31263;DHT22;17892;52.080;9.006;2022-11-10T06:44:18;13.00;92.60
31263;DHT22;17892;52.080;9.006;2022-11-10T06:46:44;13.00;92.50
31263;DHT22;17892;52.080;9.006;2022-11-10T06:49:10;13.00;92.60
31263;DHT22;17892;52.080;9.006;2022-11-10T06:51:35;13.00;92.50
31263;DHT22;17892;52.080;9.006;2022-11-10T06:54:01;13.00;92.60
31263;DHT22;17892;52.080;9.006;2022-11-10T06:56:27;13.00;92.60
31263;DHT22;17892;52.080;9.006;2022-11-10T06:58:52;13.00;92.60
31263;DHT22;17892;52.080;9.006;2022-11-10T07:01:18;13.00;92.50
31263;DHT22;17892;52.080;9.006;2022-11-10T07:03:45;13.00;92.50
31263;DHT22;17892;52.080;9.006;2022-11-10T07:06:11;13.00;92.60
31263;DHT22;17892;52.080;9.006;2022-11-10T07:08:36;13.00;92.60
31263;DHT22;17892;52.080;9.006;2022-11-10T07:11:02;13.00;92.70
31263;DHT22;17892;52.080;9.006;2022-11-10T07:13:28;13.10;92.60
31263;DHT22;17892;52.080;9.006;2022-11-10T07:15:53;13.10;93.10
31263;DHT22;17892;52.080;9.006;2022-11-10T07:18:19;13.10;92.70
31263;DHT22;17892;52.080;9.006;2022-11-10T07:20:45;13.10;92.80
31263;DHT22;17892;52.080;9.006;2022-11-10T07:23:10;13.10;92.60
31263;DHT22;17892;52.080;9.006;2022-11-10T07:25:36;13.10;92.70
31263;DHT22;17892;52.080;9.006;2022-11-10T07:28:05;13.20;92.90
31263;DHT22;17892;52.080;9.006;2022-11-10T07:30:33;13.20;92.70
31263;DHT22;17892;52.080;9.006;2022-11-10T07:33:06;13.20;92.70
31263;DHT22;17892;52.080;9.006;2022-11-10T07:35:35;13.20;92.70
31263;DHT22;17892;52.080;9.006;2022-11-10T07:38:02;13.20;92.90
31263;DHT22;17892;52.080;9.006;2022-11-10T07:40:29;13.20;92.80
31263;DHT22;17892;52.080;9.006;2022-11-10T07:42:55;13.20;93.00
31263;DHT22;17892;52.080;9.006;2022-11-10T07:45:21;13.20;92.90
31263;DHT22;17892;52.080;9.006;2022-11-10T07:47:47;13.20;92.80
31263;DHT22;17892;52.080;9.006;2022-11-10T07:50:12;13.30;92.90
31263;DHT22;17892;52.080;9.006;2022-11-10T07:52:38;13.30;92.80
31263;DHT22;17892;52.080;9.006;2022-11-10T07:55:04;13.30;92.70
31263;DHT22;17892;52.080;9.006;2022-11-10T07:57:31;13.30;92.70
31263;DHT22;17892;52.080;9.006;2022-11-10T07:59:57;13.30;92.80
31263;DHT22;17892;52.080;9.006;2022-11-10T08:02:23;13.30;92.90
31263;DHT22;17892;52.080;9.006;2022-11-10T08:04:48;13.30;92.90
31263;DHT22;17892;52.080;9.006;2022-11-10T08:07:14;13.30;92.90
31263;DHT22;17892;52.080;9.006;2022-11-10T08:09:39;13.30;93.00
31263;DHT22;17892;52.080;9.006;2022-11-10T08:12:05;13.40;93.20
31263;DHT22;17892;52.080;9.006;2022-11-10T08:14:31;13.40;93.10
31263;DHT22;17892;52.080;9.006;2022-11-10T08:16:56;13.40;93.00
31263;DHT22;17892;52.080;9.006;2022-11-10T08:19:22;13.40;92.90
31263;DHT22;17892;52.080;9.006;2022-11-10T08:21:48;13.40;93.10
31263;DHT22;17892;52.080;9.006;2022-11-10T08:24:13;13.40;93.20
31263;DHT22;17892;52.080;9.006;2022-11-10T08:26:39;13.50;93.00
31263;DHT22;17892;52.080;9.006;2022-11-10T08:29:05;13.50;93.10
31263;DHT22;17892;52.080;9.006;2022-11-10T08:31:31;13.50;92.90
31263;DHT22;17892;52.080;9.006;2022-11-10T08:33:57;13.50;92.80
31263;DHT22;17892;52.080;9.006;2022-11-10T08:36:23;13.50;93.10
31263;DHT22;17892;52.080;9.006;2022-11-10T08:38:48;13.50;93.10
31263;DHT22;17892;52.080;9.006;2022-11-10T08:41:14;13.60;93.00
31263;DHT22;17892;52.080;9.006;2022-11-10T08:43:40;13.60;92.90
31263;DHT22;17892;52.080;9.006;2022-11-10T08:46:06;13.60;92.90
31263;DHT22;17892;52.080;9.006;2022-11-10T08:48:32;13.70;92.90
31263;DHT22;17892;52.080;9.006;2022-11-10T08:50:58;13.70;92.90
31263;DHT22;17892;52.080;9.006;2022-11-10T08:53:24;13.70;93.00
31263;DHT22;17892;52.080;9.006;2022-11-10T08:55:50;13.70;93.00
31263;DHT22;17892;52.080;9.006;2022-11-10T08:58:21;13.80;93.10
31263;DHT22;17892;52.080;9.006;2022-11-10T09:00:49;13.80;93.10
31263;DHT22;17892;52.080;9.006;2022-11-10T09:03:22;13.90;93.20
31263;DHT22;17892;52.080;9.006;2022-11-10T09:05:49;13.90;93.10
31263;DHT22;17892;52.080;9.006;2022-11-10T09:08:15;13.90;93.00
31263;DHT22;17892;52.080;9.006;2022-11-10T09:10:42;14.00;93.10
31263;DHT22;17892;52.080;9.006;2022-11-10T09:13:09;14.10;93.40
31263;DHT22;17892;52.080;9.006;2022-11-10T09:15:36;14.10;93.10
31263;DHT22;17892;52.080;9.006;2022-11-10T09:18:03;14.20;93.10
31263;DHT22;17892;52.080;9.006;2022-11-10T09:20:30;14.20;93.00
31263;DHT22;17892;52.080;9.006;2022-11-10T09:23:03;14.30;93.00
31263;DHT22;17892;52.080;9.006;2022-11-10T09:25:30;14.40;93.10
31263;DHT22;17892;52.080;9.006;2022-11-10T09:27:56;14.40;93.00
31263;DHT22;17892;52.080;9.006;2022-11-10T09:30:22;14.50;93.00
31263;DHT22;17892;52.080;9.006;2022-11-10T09:32:54;14.50;92.90
31263;DHT22;17892;52.080;9.006;2022-11-10T09:35:20;14.60;93.00
31263;DHT22;17892;52.080;9.006;2022-11-10T09:37:46;14.60;92.80
31263;DHT22;17892;52.080;9.006;2022-11-10T09:40:16;14.70;92.90
31263;DHT22;17892;52.080;9.006;2022-11-10T09:42:43;14.70;93.00
31263;DHT22;17892;52.080;9.006;2022-11-10T09:45:19;14.80;92.90
31263;DHT22;17892;52.080;9.006;2022-11-10T09:48:00;14.80;92.90
31263;DHT22;17892;52.080;9.006;2022-11-10T09:50:31;14.90;93.10
31263;DHT22;17892;52.080;9.006;2022-11-10T09:53:10;15.00;93.00
31263;DHT22;17892;52.080;9.006;2022-11-10T09:55:43;15.00;93.20
31263;DHT22;17892;52.080;9.006;2022-11-10T09:58:11;15.10;92.90
31263;DHT22;17892;52.080;9.006;2022-11-10T10:00:37;15.10;92.90
31263;DHT22;17892;52.080;9.006;2022-11-10T10:03:04;15.20;92.80
31263;DHT22;17892;52.080;9.006;2022-11-10T10:08:38;15.30;92.80
31263;DHT22;17892;52.080;9.006;2022-11-10T10:14:33;15.40;92.60
31263;DHT22;17892;52.080;9.006;2022-11-10T10:17:26;15.40;92.60
31263;DHT22;17892;52.080;9.006;2022-11-10T10:24:52;15.40;92.20
31263;DHT22;17892;52.080;9.006;2022-11-10T10:27:22;15.40;92.10
31263;DHT22;17892;52.080;9.006;2022-11-10T10:29:50;15.30;92.10
31263;DHT22;17892;52.080;9.006;2022-11-10T10:32:17;15.30;92.00
31263;DHT22;17892;52.080;9.006;2022-11-10T10:34:43;15.30;92.10
31263;DHT22;17892;52.080;9.006;2022-11-10T10:39:50;15.30;92.20
31263;DHT22;17892;52.080;9.006;2022-11-10T10:42:21;15.30;92.30
31263;DHT22;17892;52.080;9.006;2022-11-10T10:45:11;15.30;92.10
31263;DHT22;17892;52.080;9.006;2022-11-10T10:47:45;15.30;92.20
31263;DHT22;17892;52.080;9.006;2022-11-10T10:50:14;15.30;92.00
31263;DHT22;17892;52.080;9.006;2022-11-10T10:52:43;15.30;92.10
31263;DHT22;17892;52.080;9.006;2022-11-10T10:55:09;15.30;92.10
31263;DHT22;17892;52.080;9.006;2022-11-10T10:57:36;15.40;92.20
31263;DHT22;17892;52.080;9.006;2022-11-10T11:00:21;15.40;92.30
31263;DHT22;17892;52.080;9.006;2022-11-10T11:03:04;15.50;92.50
31263;DHT22;17892;52.080;9.006;2022-11-10T11:06:02;15.50;92.40
31263;DHT22;17892;52.080;9.006;2022-11-10T11:08:30;15.60;92.40
31263;DHT22;17892;52.080;9.006;2022-11-10T11:10:56;15.70;92.40
31263;DHT22;17892;52.080;9.006;2022-11-10T11:13:31;15.80;92.20
31263;DHT22;17892;52.080;9.006;2022-11-10T11:16:00;15.90;92.20
31263;DHT22;17892;52.080;9.006;2022-11-10T11:18:28;15.90;92.00
31263;DHT22;17892;52.080;9.006;2022-11-10T11:29:06;16.00;91.80
31263;DHT22;17892;52.080;9.006;2022-11-10T11:34:35;16.00;91.60
31263;DHT22;17892;52.080;9.006;2022-11-10T11:39:39;16.10;92.00
31263;DHT22;17892;52.080;9.006;2022-11-10T11:42:23;16.20;91.90
31263;DHT22;17892;52.080;9.006;2022-11-10T11:44:54;16.30;91.60
31263;DHT22;17892;52.080;9.006;2022-11-10T11:47:42;16.40;91.90
31263;DHT22;17892;52.080;9.006;2022-11-10T11:58:01;16.60;91.40
31263;DHT22;17892;52.080;9.006;2022-11-10T12:00:37;16.60;90.40
31263;DHT22;17892;52.080;9.006;2022-11-10T12:03:14;16.60;90.00
31263;DHT22;17892;52.080;9.006;2022-11-10T12:05:51;16.60;90.90
31263;DHT22;17892;52.080;9.006;2022-11-10T12:11:45;16.60;90.70
31263;DHT22;17892;52.080;9.006;2022-11-10T12:16:57;16.60;90.50
31263;DHT22;17892;52.080;9.006;2022-11-10T12:22:12;16.60;90.80
31263;DHT22;17892;52.080;9.006;2022-11-10T12:25:01;16.60;90.40
31263;DHT22;17892;52.080;9.006;2022-11-10T12:27:42;16.60;91.10
31263;DHT22;17892;52.080;9.006;2022-11-10T12:30:12;16.70;90.90
31263;DHT22;17892;52.080;9.006;2022-11-10T12:32:53;16.70;90.70
31263;DHT22;17892;52.080;9.006;2022-11-10T12:35:30;16.70;91.10
31263;DHT22;17892;52.080;9.006;2022-11-10T12:37:59;16.70;90.90
31263;DHT22;17892;52.080;9.006;2022-11-10T12:40:31;16.80;90.90
31263;DHT22;17892;52.080;9.006;2022-11-10T12:43:03;16.80;90.90
31263;DHT22;17892;52.080;9.006;2022-11-10T12:48:08;17.00;90.90
31263;DHT22;17892;52.080;9.006;2022-11-10T12:50:37;17.00;91.50
31263;DHT22;17892;52.080;9.006;2022-11-10T12:53:10;17.20;91.10
31263;DHT22;17892;52.080;9.006;2022-11-10T12:55:41;17.40;91.30
31263;DHT22;17892;52.080;9.006;2022-11-10T12:58:11;17.60;90.70
31263;DHT22;17892;52.080;9.006;2022-11-10T13:00:41;17.70;91.10
31263;DHT22;17892;52.080;9.006;2022-11-10T13:03:35;17.80;90.90
31263;DHT22;17892;52.080;9.006;2022-11-10T13:06:02;18.00;91.60
31263;DHT22;17892;52.080;9.006;2022-11-10T13:08:35;18.20;90.40
31263;DHT22;17892;52.080;9.006;2022-11-10T13:13:43;18.50;87.50
31263;DHT22;17892;52.080;9.006;2022-11-10T13:16:10;18.50;90.20
31263;DHT22;17892;52.080;9.006;2022-11-10T13:19:11;18.40;86.80
31263;DHT22;17892;52.080;9.006;2022-11-10T13:22:04;18.40;88.50
31263;DHT22;17892;52.080;9.006;2022-11-10T13:24:36;18.30;86.00
31263;DHT22;17892;52.080;9.006;2022-11-10T13:27:49;18.10;86.30
31263;DHT22;17892;52.080;9.006;2022-11-10T13:30:07;18.00;85.50
31263;DHT22;17892;52.080;9.006;2022-11-10T13:32:34;17.90;87.40
31263;DHT22;17892;52.080;9.006;2022-11-10T13:37:54;17.60;85.90
31263;DHT22;17892;52.080;9.006;2022-11-10T13:58:37;16.90;86.40
31263;DHT22;17892;52.080;9.006;2022-11-10T14:06:17;16.70;87.30
31263;DHT22;17892;52.080;9.006;2022-11-10T14:11:44;16.60;87.10
31263;DHT22;17892;52.080;9.006;2022-11-10T14:17:14;16.60;87.90
31263;DHT22;17892;52.080;9.006;2022-11-10T14:19:43;16.50;87.70
31263;DHT22;17892;52.080;9.006;2022-11-10T14:27:39;16.50;87.90
31263;DHT22;17892;52.080;9.006;2022-11-10T14:30:18;16.40;88.00
31263;DHT22;17892;52.080;9.006;2022-11-10T14:32:54;16.40;87.70
31263;DHT22;17892;52.080;9.006;2022-11-10T14:35:25;16.40;88.10
31263;DHT22;17892;52.080;9.006;2022-11-10T14:37:56;16.40;88.20
31263;DHT22;17892;52.080;9.006;2022-11-10T14:40:22;16.40;88.10
31263;DHT22;17892;52.080;9.006;2022-11-10T14:42:48;16.40;88.00
31263;DHT22;17892;52.080;9.006;2022-11-10T14:45:21;16.40;87.80
31263;DHT22;17892;52.080;9.006;2022-11-10T14:47:53;16.40;88.00
31263;DHT22;17892;52.080;9.006;2022-11-10T14:50:22;16.40;88.10
31263;DHT22;17892;52.080;9.006;2022-11-10T14:53:34;16.40;88.10
31263;DHT22;17892;52.080;9.006;2022-11-10T14:55:43;16.30;87.80
31263;DHT22;17892;52.080;9.006;2022-11-10T14:58:15;16.30;87.70
31263;DHT22;17892;52.080;9.006;2022-11-10T15:00:45;16.20;87.60
31263;DHT22;17892;52.080;9.006;2022-11-10T15:03:18;16.10;87.20
31263;DHT22;17892;52.080;9.006;2022-11-10T15:06:11;16.10;87.50
31263;DHT22;17892;52.080;9.006;2022-11-10T15:08:37;16.00;87.40
31263;DHT22;17892;52.080;9.006;2022-11-10T15:11:03;16.00;87.60
31263;DHT22;17892;52.080;9.006;2022-11-10T15:18:45;15.70;87.30
31263;DHT22;17892;52.080;9.006;2022-11-10T15:21:14;15.70;87.40
31263;DHT22;17892;52.080;9.006;2022-11-10T15:23:41;15.60;87.40
31263;DHT22;17892;52.080;9.006;2022-11-10T15:26:21;15.60;87.40
31263;DHT22;17892;52.080;9.006;2022-11-10T15:28:48;15.50;87.40
31263;DHT22;17892;52.080;9.006;2022-11-10T15:31:24;15.40;87.50
31263;DHT22;17892;52.080;9.006;2022-11-10T15:33:55;15.40;87.50
31263;DHT22;17892;52.080;9.006;2022-11-10T15:39:05;15.30;87.70
31263;DHT22;17892;52.080;9.006;2022-11-10T15:41:37;15.20;87.40
31263;DHT22;17892;52.080;9.006;2022-11-10T15:46:52;15.00;87.50
31263;DHT22;17892;52.080;9.006;2022-11-10T15:49:21;15.00;87.30
31263;DHT22;17892;52.080;9.006;2022-11-10T15:51:54;14.90;88.20
31263;DHT22;17892;52.080;9.006;2022-11-10T15:54:23;14.90;87.40
31263;DHT22;17892;52.080;9.006;2022-11-10T15:56:50;14.80;87.50
31263;DHT22;17892;52.080;9.006;2022-11-10T15:59:15;14.70;87.60
31263;DHT22;17892;52.080;9.006;2022-11-10T16:01:41;14.70;87.70
31263;DHT22;17892;52.080;9.006;2022-11-10T16:04:10;14.60;87.60
31263;DHT22;17892;52.080;9.006;2022-11-10T16:06:37;14.50;88.40
31263;DHT22;17892;52.080;9.006;2022-11-10T16:09:03;14.40;87.60
31263;DHT22;17892;52.080;9.006;2022-11-10T16:11:30;14.40;87.90
31263;DHT22;17892;52.080;9.006;2022-11-10T16:13:56;14.30;88.50
31263;DHT22;17892;52.080;9.006;2022-11-10T16:16:22;14.30;88.20
31263;DHT22;17892;52.080;9.006;2022-11-10T16:18:49;14.20;88.30
31263;DHT22;17892;52.080;9.006;2022-11-10T16:21:16;14.20;89.10
31263;DHT22;17892;52.080;9.006;2022-11-10T16:23:46;14.10;89.30
31263;DHT22;17892;52.080;9.006;2022-11-10T16:26:13;14.10;89.50
31263;DHT22;17892;52.080;9.006;2022-11-10T16:28:40;14.00;89.50
31263;DHT22;17892;52.080;9.006;2022-11-10T16:31:12;13.90;89.10
31263;DHT22;17892;52.080;9.006;2022-11-10T16:33:40;13.90;88.80
31263;DHT22;17892;52.080;9.006;2022-11-10T16:36:09;13.80;88.90
31263;DHT22;17892;52.080;9.006;2022-11-10T16:38:39;13.70;88.50
31263;DHT22;17892;52.080;9.006;2022-11-10T16:41:09;13.60;89.00
31263;DHT22;17892;52.080;9.006;2022-11-10T16:43:36;13.60;88.90
31263;DHT22;17892;52.080;9.006;2022-11-10T16:46:02;13.50;89.50
31263;DHT22;17892;52.080;9.006;2022-11-10T16:48:31;13.50;90.10
31263;DHT22;17892;52.080;9.006;2022-11-10T16:50:58;13.50;89.90
31263;DHT22;17892;52.080;9.006;2022-11-10T16:53:26;13.40;89.20
31263;DHT22;17892;52.080;9.006;2022-11-10T16:55:52;13.40;89.20
31263;DHT22;17892;52.080;9.006;2022-11-10T16:58:18;13.40;89.70
31263;DHT22;17892;52.080;9.006;2022-11-10T17:00:44;13.40;89.90
31263;DHT22;17892;52.080;9.006;2022-11-10T17:03:15;13.40;90.20
31263;DHT22;17892;52.080;9.006;2022-11-10T17:05:42;13.30;88.90
31263;DHT22;17892;52.080;9.006;2022-11-10T17:08:15;13.30;89.50
31263;DHT22;17892;52.080;9.006;2022-11-10T17:10:47;13.30;88.90
31263;DHT22;17892;52.080;9.006;2022-11-10T17:13:13;13.30;90.00
31263;DHT22;17892;52.080;9.006;2022-11-10T17:15:39;13.30;89.40
31263;DHT22;17892;52.080;9.006;2022-11-10T17:18:05;13.30;89.30
31263;DHT22;17892;52.080;9.006;2022-11-10T17:20:35;13.30;89.20